createdAt,value
2019-05-20T00:02:23.190Z,9.43
2019-05-20T00:04:40.983Z,10.43
2019-05-20T00:07:09.467Z,10.25
2019-05-20T00:09:37.984Z,11.22
2019-05-20T00:12:06.467Z,10.88
2019-05-20T00:14:34.966Z,10.80
2019-05-20T00:17:03.448Z,10.28
2019-05-20T00:19:31.958Z,10.63
2019-05-20T00:22:00.438Z,10.60
2019-05-20T00:24:28.956Z,11.18
2019-05-20T00:26:57.434Z,11.55
2019-05-20T00:29:25.938Z,11.18
2019-05-20T00:31:54.417Z,10.78
2019-05-20T00:34:34.788Z,11.90
2019-05-20T00:36:53.123Z,10.68
2019-05-20T00:39:21.633Z,10.82
2019-05-20T00:41:50.115Z,10.85
2019-05-20T00:44:19.066Z,11.65
2019-05-20T00:46:47.547Z,11.15
2019-05-20T00:49:16.746Z,10.30
2019-05-20T00:51:45.473Z,11.03
2019-05-20T00:54:14.099Z,11.35
2019-05-20T00:56:42.671Z,11.80
2019-05-20T00:59:11.521Z,11.73
2019-05-20T01:01:40.030Z,10.53
2019-05-20T01:04:08.534Z,11.65
2019-05-20T01:06:37.029Z,11.00
2019-05-20T01:09:07.880Z,10.68
2019-05-20T01:11:36.386Z,10.48
2019-05-20T01:14:05.536Z,10.53
2019-05-20T01:16:34.082Z,9.78
2019-05-20T01:19:02.657Z,11.12
2019-05-20T01:21:31.147Z,10.25
2019-05-20T01:23:59.657Z,9.80
2019-05-20T01:26:28.167Z,10.28
2019-05-20T01:28:56.656Z,10.43
2019-05-20T01:31:25.449Z,10.00
2019-05-20T01:33:54.133Z,9.98
2019-05-20T01:36:22.644Z,11.13
2019-05-20T01:38:51.136Z,10.78
2019-05-20T01:41:19.662Z,10.08
2019-05-20T01:43:48.723Z,10.10
2019-05-20T01:46:17.299Z,10.10
2019-05-20T01:48:46.068Z,10.55
2019-05-20T01:51:14.587Z,9.70
2019-05-20T01:53:43.113Z,10.40
2019-05-20T01:56:11.779Z,10.23
2019-05-20T01:58:40.334Z,9.63
2019-05-20T02:01:08.999Z,10.23
2019-05-20T02:03:37.477Z,10.40
2019-05-20T02:06:06.126Z,9.68
2019-05-20T02:08:34.622Z,9.73
2019-05-20T02:13:56.486Z,9.50
2019-05-20T02:16:34.387Z,9.53
2019-05-20T02:24:56.254Z,9.57
2019-05-20T02:27:24.833Z,10.60
2019-05-20T02:29:53.301Z,10.30
2019-05-20T02:32:32.525Z,10.33
2019-05-20T02:35:03.535Z,10.77
2019-05-20T02:37:32.044Z,10.93
2019-05-20T02:40:07.709Z,10.47
2019-05-20T02:42:38.049Z,10.13
2019-05-20T02:45:08.171Z,9.70
2019-05-20T02:47:55.062Z,10.60
2019-05-20T02:50:11.605Z,11.17
2019-05-20T02:52:40.219Z,10.33
2019-05-20T02:55:09.237Z,10.33
2019-05-20T02:57:37.748Z,10.63
2019-05-20T03:00:07.788Z,10.03
2019-05-20T03:02:36.301Z,9.73
2019-05-20T03:05:06.090Z,9.90
2019-05-20T03:07:34.609Z,10.40
2019-05-20T03:10:03.105Z,10.00
2019-05-20T03:12:31.618Z,10.50
2019-05-20T03:15:00.110Z,10.77
2019-05-20T03:17:28.675Z,10.60
2019-05-20T03:19:57.166Z,11.43
2019-05-20T03:22:25.689Z,12.47
2019-05-20T03:24:54.179Z,11.87
2019-05-20T03:27:22.693Z,11.40
2019-05-20T03:29:51.229Z,10.77
2019-05-20T03:32:19.741Z,10.90
2019-05-20T03:34:58.802Z,10.57
2019-05-20T03:37:18.518Z,10.47
2019-05-20T03:39:46.991Z,9.70
2019-05-20T03:42:15.499Z,10.82
2019-05-20T03:44:43.989Z,10.33
2019-05-20T03:47:12.497Z,10.67
2019-05-20T03:49:40.982Z,11.65
2019-05-20T03:52:09.498Z,11.60
2019-05-20T03:54:37.999Z,11.00
2019-05-20T03:57:06.504Z,12.70
2019-05-20T03:59:34.996Z,11.73
2019-05-20T04:02:03.579Z,12.10
2019-05-20T04:04:32.066Z,11.73
2019-05-20T04:07:00.568Z,12.20
2019-05-20T04:09:29.057Z,12.03
2019-05-20T04:11:57.581Z,11.88
2019-05-20T04:14:26.094Z,12.07
2019-05-20T04:16:54.585Z,11.77
2019-05-20T04:19:23.119Z,12.50
2019-05-20T04:21:51.632Z,12.80
2019-05-20T04:24:20.186Z,12.33
2019-05-20T04:26:51.744Z,11.57
2019-05-20T04:29:20.230Z,11.53
2019-05-20T04:31:49.012Z,11.35
2019-05-20T04:34:17.497Z,12.73
2019-05-20T04:36:45.988Z,12.73
2019-05-20T04:39:14.497Z,12.20
2019-05-20T04:41:42.987Z,11.70
2019-05-20T04:44:11.491Z,12.43
2019-05-20T04:46:40.112Z,13.05
2019-05-20T04:49:08.619Z,12.63
2019-05-20T04:51:37.108Z,13.32
2019-05-20T04:54:05.623Z,11.93
2019-05-20T04:56:34.116Z,14.10
2019-05-20T04:59:02.662Z,13.95
2019-05-20T05:01:31.279Z,13.00
2019-05-20T05:03:59.790Z,13.98
2019-05-20T05:06:28.286Z,14.30
2019-05-20T05:08:56.792Z,14.10
2019-05-20T05:11:25.417Z,15.32
2019-05-20T05:13:54.158Z,14.93
2019-05-20T05:16:23.578Z,14.53
2019-05-20T05:18:52.093Z,14.50
2019-05-20T05:21:20.581Z,13.08
2019-05-20T05:23:58.762Z,14.47
2019-05-20T05:26:19.378Z,15.13
2019-05-20T05:28:47.955Z,14.40
2019-05-20T05:31:16.439Z,15.30
2019-05-20T05:33:45.015Z,15.65
2019-05-20T05:36:13.507Z,15.48
2019-05-20T05:38:42.032Z,16.25
2019-05-20T05:41:10.528Z,14.78
2019-05-20T05:43:39.040Z,15.10
2019-05-20T05:46:07.535Z,15.60
2019-05-20T05:48:36.046Z,14.75
2019-05-20T05:51:04.545Z,14.23
2019-05-20T05:53:33.062Z,15.45
2019-05-20T05:56:01.565Z,15.72
2019-05-20T05:58:30.077Z,15.00
2019-05-20T06:00:58.563Z,15.28
2019-05-20T06:03:27.092Z,13.88
2019-05-20T06:06:10.677Z,13.20
2019-05-20T06:08:25.798Z,13.25
2019-05-20T06:10:54.280Z,11.48
2019-05-20T06:13:22.792Z,12.10
2019-05-20T06:15:54.515Z,10.25
2019-05-20T06:18:21.703Z,10.25
2019-05-20T06:20:50.214Z,9.63
2019-05-20T06:23:18.697Z,9.18
2019-05-20T06:25:47.212Z,9.15
2019-05-20T06:28:15.701Z,9.18
2019-05-20T06:30:45.151Z,9.30
2019-05-20T06:33:13.656Z,8.45
2019-05-20T06:35:42.388Z,8.80
2019-05-20T06:38:12.652Z,9.30
2019-05-20T06:40:41.720Z,8.43
2019-05-20T06:43:10.200Z,8.70
2019-05-20T06:45:38.704Z,8.83
2019-05-20T06:48:07.318Z,9.78
2019-05-20T06:50:35.933Z,9.25
2019-05-20T06:53:04.402Z,19.42
2019-05-20T06:55:32.916Z,9.93
2019-05-20T06:58:01.394Z,10.58
2019-05-20T07:00:34.747Z,12.55
2019-05-20T07:03:04.174Z,12.82
2019-05-20T07:05:32.758Z,14.13
2019-05-20T07:08:01.563Z,13.03
2019-05-20T07:10:30.268Z,11.97
2019-05-20T07:12:58.750Z,12.28
2019-05-20T07:15:27.266Z,12.60
2019-05-20T07:17:55.752Z,13.28
2019-05-20T07:20:24.253Z,10.98
2019-05-20T07:22:56.109Z,12.00
2019-05-20T07:25:23.002Z,11.63
2019-05-20T07:27:51.475Z,11.45
2019-05-20T07:30:20.151Z,11.70
2019-05-20T07:32:48.637Z,12.58
2019-05-20T07:35:29.448Z,12.60
2019-05-20T07:37:47.374Z,14.95
2019-05-20T07:40:18.959Z,14.78
2019-05-20T07:42:47.420Z,13.88
2019-05-20T07:45:15.999Z,13.03
2019-05-20T07:47:44.546Z,13.22
2019-05-20T07:50:13.490Z,14.85
2019-05-20T07:52:42.141Z,14.47
2019-05-20T07:55:10.800Z,14.93
2019-05-20T07:57:42.086Z,14.33
2019-05-20T08:00:11.285Z,14.80
2019-05-20T08:02:40.097Z,14.87
2019-05-20T08:05:09.186Z,15.68
2019-05-20T08:07:51.127Z,14.13
2019-05-20T08:10:08.310Z,15.50
2019-05-20T08:12:36.820Z,14.90
2019-05-20T08:15:08.737Z,13.93
2019-05-20T08:17:37.355Z,13.48
2019-05-20T08:20:07.045Z,14.53
2019-05-20T08:22:35.558Z,14.95
2019-05-20T08:25:06.691Z,14.15
2019-05-20T08:27:35.590Z,13.55
2019-05-20T08:30:07.054Z,14.50
2019-05-20T08:32:35.553Z,14.23
2019-05-20T08:35:05.816Z,14.43
2019-05-20T08:37:44.720Z,13.13
2019-05-20T08:40:05.645Z,13.75
2019-05-20T08:42:34.234Z,14.78
2019-05-20T08:45:03.401Z,12.93
2019-05-20T08:47:33.066Z,15.70
2019-05-20T08:50:03.868Z,14.55
2019-05-20T08:52:31.884Z,15.05
2019-05-20T08:55:00.409Z,14.45
2019-05-20T08:57:28.936Z,16.12
2019-05-20T08:59:57.493Z,16.05
2019-05-20T09:02:25.993Z,14.30
2019-05-20T09:04:54.497Z,13.35
2019-05-20T09:07:23.051Z,13.35
2019-05-20T09:09:51.780Z,13.60
2019-05-20T09:12:20.295Z,12.20
2019-05-20T09:14:48.790Z,12.40
2019-05-20T09:17:17.326Z,11.20
2019-05-20T09:19:47.054Z,11.73
2019-05-20T09:22:15.804Z,10.72
2019-05-20T09:24:44.986Z,11.10
2019-05-20T09:27:13.615Z,10.70
2019-05-20T09:29:42.110Z,10.32
2019-05-20T09:32:10.617Z,10.78
2019-05-20T09:34:39.119Z,11.12
2019-05-20T09:37:07.668Z,10.72
2019-05-20T09:39:36.168Z,12.30
2019-05-20T09:42:04.759Z,12.05
2019-05-20T09:44:33.239Z,11.35
2019-05-20T09:47:01.764Z,11.20
2019-05-20T09:49:30.285Z,11.75
2019-05-20T09:51:58.821Z,12.30
2019-05-20T09:54:27.292Z,12.80
2019-05-20T09:56:55.809Z,12.75
2019-05-20T09:59:24.306Z,12.73
2019-05-20T10:01:52.822Z,12.00
2019-05-20T10:04:21.318Z,12.50
2019-05-20T10:06:49.896Z,12.68
2019-05-20T10:09:18.371Z,12.78
2019-05-20T10:11:46.896Z,11.90
2019-05-20T10:14:15.380Z,12.43
2019-05-20T10:16:43.907Z,12.65
2019-05-20T10:19:12.389Z,12.88
2019-05-20T10:21:40.892Z,12.60
2019-05-20T10:24:09.381Z,12.88
2019-05-20T10:26:37.963Z,12.65
2019-05-20T10:29:06.447Z,11.95
2019-05-20T10:31:34.962Z,12.43
2019-05-20T10:34:03.433Z,14.03
2019-05-20T10:36:31.945Z,12.90
2019-05-20T10:39:00.510Z,12.50
2019-05-20T10:41:29.749Z,12.90
2019-05-20T10:43:58.274Z,12.23
2019-05-20T10:46:26.747Z,12.20
2019-05-20T10:48:55.248Z,13.72
2019-05-20T10:51:23.735Z,12.93
2019-05-20T10:53:52.243Z,12.93
2019-05-20T10:56:20.724Z,12.50
2019-05-20T10:58:49.230Z,13.40
2019-05-20T11:01:17.740Z,14.10
2019-05-20T11:03:46.244Z,13.65
2019-05-20T11:06:15.073Z,13.60
2019-05-20T11:08:43.586Z,14.55
2019-05-20T11:11:14.249Z,14.58
2019-05-20T11:13:42.454Z,14.03
2019-05-20T11:16:10.932Z,14.50
2019-05-20T11:18:39.446Z,15.55
2019-05-20T11:21:07.959Z,14.68
2019-05-20T11:23:36.529Z,13.20
2019-05-20T11:26:05.059Z,13.88
2019-05-20T11:28:33.572Z,12.90
2019-05-20T11:31:02.051Z,13.20
2019-05-20T11:33:30.557Z,14.15
2019-05-20T11:35:59.037Z,14.75
2019-05-20T11:38:27.544Z,14.25
2019-05-20T11:40:56.022Z,14.00
2019-05-20T11:43:24.533Z,14.15
2019-05-20T11:45:53.083Z,13.32
2019-05-20T11:48:21.599Z,13.58
2019-05-20T11:50:50.080Z,16.27
2019-05-20T11:53:18.665Z,14.43
2019-05-20T11:55:47.149Z,14.47
2019-05-20T11:58:16.598Z,14.58
2019-05-20T12:00:45.244Z,14.28
2019-05-20T12:03:13.797Z,15.10
2019-05-20T12:05:42.387Z,15.05
2019-05-20T12:08:10.893Z,15.53
2019-05-20T12:10:39.405Z,14.33
2019-05-20T12:13:07.915Z,17.00
2019-05-20T12:15:36.401Z,16.95
2019-05-20T12:18:04.986Z,16.90
2019-05-20T12:20:33.534Z,16.67
2019-05-20T12:23:02.060Z,17.10
2019-05-20T12:25:30.544Z,18.23
2019-05-20T12:27:59.056Z,16.05
2019-05-20T12:30:27.558Z,12.30
2019-05-20T12:33:17.361Z,9.45
2019-05-20T12:35:26.253Z,7.33
2019-05-20T12:37:54.719Z,8.60
2019-05-20T12:40:23.980Z,5.20
2019-05-20T12:42:52.453Z,5.17
2019-05-20T12:45:21.113Z,4.85
2019-05-20T12:47:49.583Z,4.55
2019-05-20T12:50:18.164Z,3.30
2019-05-20T12:52:46.626Z,2.20
2019-05-20T12:55:15.470Z,1.60
2019-05-20T12:57:43.949Z,1.52
2019-05-20T13:00:14.263Z,1.30
2019-05-20T13:02:42.827Z,1.35
2019-05-20T13:05:11.965Z,1.25
2019-05-20T13:07:40.445Z,1.70
2019-05-20T13:10:26.799Z,1.50
2019-05-20T13:12:39.677Z,1.47
2019-05-20T13:15:09.012Z,1.62
2019-05-20T13:17:42.876Z,1.60
2019-05-20T13:20:08.277Z,1.70
2019-05-20T13:22:37.529Z,1.50
2019-05-20T13:25:09.038Z,1.70
2019-05-20T13:27:37.513Z,1.95
2019-05-20T13:30:08.929Z,1.57
2019-05-20T13:32:37.402Z,1.70
2019-05-20T13:35:09.256Z,1.80
2019-05-20T13:37:37.995Z,1.80
2019-05-20T13:40:07.237Z,1.60
2019-05-20T13:42:35.707Z,1.80
2019-05-20T13:45:05.641Z,1.70
2019-05-20T13:47:34.120Z,1.87
2019-05-20T13:50:02.805Z,1.72
2019-05-20T13:52:31.275Z,1.80
2019-05-20T13:54:59.857Z,1.72
2019-05-20T13:57:28.328Z,1.77
2019-05-20T13:59:56.829Z,1.70
2019-05-20T14:02:25.304Z,1.60
2019-05-20T14:04:53.812Z,1.90
2019-05-20T14:07:22.288Z,1.80
2019-05-20T14:09:50.794Z,1.80
2019-05-20T14:12:19.265Z,1.60
2019-05-20T14:14:47.771Z,1.75
2019-05-20T14:17:16.260Z,1.50
2019-05-20T14:19:44.838Z,1.47
2019-05-20T14:22:13.318Z,1.42
2019-05-20T14:24:41.819Z,1.45
2019-05-20T14:27:10.299Z,1.50
2019-05-20T14:29:38.803Z,1.42
2019-05-20T14:32:07.270Z,1.40
2019-05-20T14:34:35.779Z,1.60
2019-05-20T14:37:04.251Z,1.40
2019-05-20T14:39:32.746Z,1.40
2019-05-20T14:42:01.219Z,1.45
2019-05-20T14:44:29.722Z,1.52
2019-05-20T14:46:58.197Z,1.52
2019-05-20T14:49:26.770Z,1.60
2019-05-20T14:51:55.436Z,1.62
2019-05-20T14:54:23.909Z,1.35
2019-05-20T14:56:52.425Z,1.50
2019-05-20T14:59:20.895Z,1.50
2019-05-20T15:01:49.427Z,1.30
2019-05-20T15:04:17.896Z,1.27
2019-05-20T15:06:46.392Z,1.42
2019-05-20T15:09:14.888Z,1.30
2019-05-20T15:11:43.385Z,1.20
2019-05-20T15:14:11.862Z,1.40
2019-05-20T15:16:40.369Z,1.42
2019-05-20T15:19:08.849Z,1.47
2019-05-20T15:21:37.369Z,1.47
2019-05-20T15:24:05.949Z,1.37
2019-05-20T15:26:34.454Z,1.32
2019-05-20T15:29:04.339Z,1.30
2019-05-20T15:31:33.355Z,1.55
2019-05-20T15:34:01.883Z,1.32
2019-05-20T15:36:30.385Z,1.25
2019-05-20T15:38:58.875Z,1.55
2019-05-20T15:41:27.379Z,1.32
2019-05-20T15:43:55.850Z,1.57
2019-05-20T15:46:25.876Z,1.50
2019-05-20T15:48:54.368Z,1.70
2019-05-20T15:51:22.886Z,1.55
2019-05-20T15:53:51.357Z,1.57
2019-05-20T15:56:19.883Z,1.95
2019-05-20T15:58:48.434Z,1.52
2019-05-20T16:01:16.997Z,1.72
2019-05-20T16:03:45.473Z,2.00
2019-05-20T16:06:13.979Z,2.02
2019-05-20T16:08:42.449Z,1.82
2019-05-20T16:11:10.961Z,1.72
2019-05-20T16:13:39.444Z,1.60
2019-05-20T16:16:07.924Z,1.85
2019-05-20T16:18:36.438Z,1.82
2019-05-20T16:21:04.989Z,1.70
2019-05-20T16:23:33.497Z,1.65
2019-05-20T16:26:01.997Z,1.60
2019-05-20T16:28:30.511Z,1.92
2019-05-20T16:30:58.985Z,2.27
2019-05-20T16:33:27.575Z,1.67
2019-05-20T16:35:56.090Z,1.72
2019-05-20T16:38:24.562Z,1.90
2019-05-20T16:40:53.044Z,1.80
2019-05-20T16:43:21.554Z,1.75
2019-05-20T16:45:50.039Z,1.98
2019-05-20T16:48:18.547Z,1.80
2019-05-20T16:50:47.027Z,1.90
2019-05-20T16:53:15.549Z,1.98
2019-05-20T16:55:44.103Z,2.00
2019-05-20T16:58:12.601Z,1.75
2019-05-20T17:00:41.560Z,1.90
2019-05-20T17:03:10.092Z,2.00
2019-05-20T17:05:38.906Z,2.00
2019-05-20T17:08:07.589Z,2.00
2019-05-20T17:10:36.071Z,2.00
2019-05-20T17:13:04.804Z,2.20
2019-05-20T17:15:33.302Z,2.22
2019-05-20T17:18:01.795Z,2.20
2019-05-20T17:20:30.347Z,2.20
2019-05-20T17:22:58.850Z,2.17
2019-05-20T17:25:27.367Z,2.52
2019-05-20T17:27:55.838Z,2.27
2019-05-20T17:30:24.325Z,2.20
2019-05-20T17:32:52.823Z,2.60
2019-05-20T17:35:21.561Z,2.35
2019-05-20T17:37:50.137Z,2.12
2019-05-20T17:40:19.464Z,2.37
2019-05-20T17:42:48.028Z,2.12
2019-05-20T17:45:17.541Z,2.30
2019-05-20T17:47:46.032Z,2.42
2019-05-20T17:50:17.059Z,2.40
2019-05-20T17:52:45.541Z,2.40
2019-05-20T17:55:14.405Z,2.50
2019-05-20T17:57:42.891Z,2.55
2019-05-20T18:00:18.625Z,2.60
2019-05-20T18:02:47.089Z,2.60
2019-05-20T18:05:15.731Z,2.42
2019-05-20T18:07:44.276Z,2.77
2019-05-20T18:10:13.009Z,2.42
2019-05-20T18:12:41.495Z,2.62
2019-05-20T18:15:10.307Z,2.83
2019-05-20T18:17:38.783Z,2.67
2019-05-20T18:20:07.523Z,2.67
2019-05-20T18:22:36.068Z,2.60
2019-05-20T18:25:08.486Z,2.50
2019-05-20T18:27:36.970Z,2.62
2019-05-20T18:30:07.947Z,2.70
2019-05-20T18:32:38.487Z,2.90
2019-05-20T18:35:07.072Z,2.98
2019-05-20T18:37:35.559Z,3.02
2019-05-20T18:40:13.826Z,2.83
2019-05-20T18:42:35.581Z,3.00
2019-05-20T18:45:06.140Z,3.00
2019-05-20T18:47:34.685Z,3.30
2019-05-20T18:50:04.461Z,2.95
2019-05-20T18:52:33.005Z,3.35
2019-05-20T18:55:01.517Z,2.92
2019-05-20T18:57:29.998Z,3.30
2019-05-20T18:59:58.536Z,3.60
2019-05-20T19:02:26.988Z,3.37
2019-05-20T19:04:55.510Z,3.33
2019-05-20T19:07:23.978Z,3.42
2019-05-20T19:09:52.489Z,3.60
2019-05-20T19:12:20.968Z,3.20
2019-05-20T19:14:49.459Z,3.33
2019-05-20T19:17:17.988Z,3.58
2019-05-20T19:19:46.579Z,3.47
2019-05-20T19:22:15.054Z,3.25
2019-05-20T19:24:43.550Z,3.33
2019-05-20T19:27:12.103Z,4.45
2019-05-20T19:29:40.634Z,4.35
2019-05-20T19:32:09.771Z,3.77
2019-05-20T19:34:38.284Z,4.08
2019-05-20T19:37:06.751Z,3.90
2019-05-20T19:39:35.255Z,3.70
2019-05-20T19:42:03.740Z,3.60
2019-05-20T19:44:32.238Z,3.22
2019-05-20T19:47:00.712Z,4.30
2019-05-20T19:49:29.213Z,4.33
2019-05-20T19:51:57.719Z,5.12
2019-05-20T19:54:26.206Z,7.72
2019-05-20T19:56:54.713Z,9.30
2019-05-20T19:59:23.192Z,9.48
2019-05-20T20:01:51.709Z,10.40
2019-05-20T20:04:20.190Z,9.45
2019-05-20T20:06:48.701Z,8.35
2019-05-20T20:09:18.825Z,8.98
2019-05-20T20:11:47.337Z,9.00
2019-05-20T20:14:15.822Z,9.18
2019-05-20T20:16:44.327Z,7.62
2019-05-20T20:19:12.805Z,7.20
2019-05-20T20:21:41.308Z,6.60
2019-05-20T20:24:09.949Z,6.22
2019-05-20T20:26:38.448Z,6.03
2019-05-20T20:29:06.928Z,5.20
2019-05-20T20:31:35.430Z,5.47
2019-05-20T20:34:04.267Z,5.13
2019-05-20T20:36:32.770Z,5.13
2019-05-20T20:39:01.246Z,5.25
2019-05-20T20:41:29.764Z,5.83
2019-05-20T20:43:58.240Z,6.80
2019-05-20T20:46:27.030Z,6.62
2019-05-20T20:48:55.518Z,5.40
2019-05-20T20:51:24.033Z,6.42
2019-05-20T20:53:52.514Z,6.08
2019-05-20T20:56:25.066Z,6.35
2019-05-20T20:58:51.352Z,6.60
2019-05-20T21:01:19.836Z,6.00
2019-05-20T21:03:48.317Z,5.78
2019-05-20T21:06:16.820Z,5.45
2019-05-20T21:08:45.294Z,5.30
2019-05-20T21:11:13.799Z,5.12
2019-05-20T21:13:42.290Z,4.90
2019-05-20T21:16:10.790Z,5.05
2019-05-20T21:18:39.340Z,4.87
2019-05-20T21:21:07.874Z,4.78
2019-05-20T21:23:38.093Z,4.37
2019-05-20T21:26:06.717Z,4.30
2019-05-20T21:28:35.196Z,3.90
2019-05-20T21:31:03.696Z,3.62
2019-05-20T21:33:32.215Z,3.10
2019-05-20T21:36:00.684Z,3.62
2019-05-20T21:38:29.158Z,3.20
2019-05-20T21:40:57.698Z,3.20
2019-05-20T21:43:26.160Z,2.90
2019-05-20T21:45:54.664Z,3.10
2019-05-20T21:48:23.336Z,2.62
2019-05-20T21:50:51.840Z,3.37
2019-05-20T21:53:22.290Z,2.80
2019-05-20T21:55:50.747Z,2.90
2019-05-20T21:58:19.257Z,2.92
2019-05-20T22:00:54.558Z,2.55
2019-05-20T22:03:24.903Z,3.27
2019-05-20T22:05:53.457Z,2.80
2019-05-20T22:08:21.952Z,3.52
2019-05-20T22:10:50.426Z,3.50
2019-05-20T22:13:18.948Z,2.92
2019-05-20T22:15:47.432Z,3.20
2019-05-20T22:18:15.929Z,3.00
2019-05-20T22:20:44.397Z,3.35
2019-05-20T22:23:16.955Z,3.27
2019-05-20T22:25:47.150Z,3.42
2019-05-20T22:28:15.636Z,3.70
2019-05-20T22:30:44.184Z,3.62
2019-05-20T22:33:12.728Z,3.70
2019-05-20T22:35:41.233Z,4.07
2019-05-20T22:38:09.724Z,3.70
2019-05-20T22:40:38.221Z,3.63
2019-05-20T22:43:06.704Z,3.22
2019-05-20T22:45:35.847Z,3.12
2019-05-20T22:48:04.342Z,2.92
2019-05-20T22:50:32.813Z,3.00
2019-05-20T22:53:01.316Z,3.43
2019-05-20T22:55:29.787Z,3.58
2019-05-20T22:57:58.291Z,3.45
2019-05-20T23:00:26.760Z,3.83
2019-05-20T23:02:55.277Z,3.67
2019-05-20T23:05:23.741Z,3.55
2019-05-20T23:07:52.237Z,3.95
2019-05-20T23:10:20.788Z,3.60
2019-05-20T23:12:49.290Z,3.72
2019-05-20T23:15:17.767Z,4.08
2019-05-20T23:17:46.262Z,4.10
2019-05-20T23:20:14.889Z,4.10
2019-05-20T23:22:43.391Z,4.22
2019-05-20T23:25:12.037Z,4.27
2019-05-20T23:27:40.548Z,4.60
2019-05-20T23:30:09.454Z,3.90
2019-05-20T23:32:37.957Z,4.50
2019-05-20T23:35:07.175Z,4.53
2019-05-20T23:37:35.746Z,4.43
2019-05-20T23:40:06.263Z,4.55
2019-05-20T23:42:34.773Z,3.93
2019-05-20T23:45:04.890Z,4.30
2019-05-20T23:47:33.373Z,4.50
2019-05-20T23:50:01.945Z,4.07
2019-05-20T23:52:30.428Z,3.85
2019-05-20T23:54:58.933Z,4.30
2019-05-20T23:57:27.479Z,3.77
2019-05-20T23:59:55.981Z,4.17
